createdAt,value
2018-12-06T00:00:49.009Z,54.00
2018-12-06T00:03:19.421Z,48.27
2018-12-06T00:43:17.245Z,41.07
2018-12-06T00:45:47.365Z,44.10
2018-12-06T00:48:17.266Z,45.80
2018-12-06T00:50:55.388Z,44.53
2018-12-06T00:53:24.984Z,44.30
2018-12-06T00:55:54.597Z,45.67
2018-12-06T00:58:24.087Z,45.93
2018-12-06T01:00:53.790Z,44.03
2018-12-06T01:03:24.031Z,49.00
2018-12-06T01:05:53.727Z,52.80
2018-12-06T01:08:23.436Z,50.50
2018-12-06T01:10:53.550Z,50.93
2018-12-06T01:13:23.576Z,48.23
2018-12-06T01:15:53.405Z,48.40
2018-12-06T01:18:26.185Z,44.47
2018-12-06T01:20:55.872Z,44.43
2018-12-06T01:23:25.578Z,43.40
2018-12-06T01:25:55.391Z,43.13
2018-12-06T01:28:25.018Z,40.67
2018-12-06T01:30:54.710Z,41.33
2018-12-06T01:33:24.317Z,41.00
2018-12-06T01:35:54.344Z,40.93
2018-12-06T01:38:24.358Z,41.13
2018-12-06T01:40:53.965Z,40.47
2018-12-06T01:43:23.785Z,39.20
2018-12-06T01:45:53.368Z,36.83
2018-12-06T01:48:23.406Z,39.17
2018-12-06T01:50:52.997Z,35.67
2018-12-06T01:53:22.393Z,38.73
2018-12-06T01:55:52.235Z,34.90
2018-12-06T01:58:22.037Z,34.07
2018-12-06T02:00:51.854Z,31.83
2018-12-06T02:03:24.642Z,32.20
2018-12-06T02:05:54.418Z,31.80
2018-12-06T02:08:24.029Z,34.57
2018-12-06T02:10:53.861Z,37.43
2018-12-06T02:13:23.447Z,41.57
2018-12-06T02:15:53.168Z,39.67
2018-12-06T02:18:22.876Z,41.70
2018-12-06T02:20:52.586Z,40.10
2018-12-06T02:23:22.416Z,37.93
2018-12-06T02:25:52.415Z,33.10
2018-12-06T02:28:21.910Z,31.83
2018-12-06T02:30:51.410Z,31.93
2018-12-06T02:33:21.952Z,32.90
2018-12-06T02:35:51.649Z,34.73
2018-12-06T02:38:21.043Z,35.73
2018-12-06T02:40:50.975Z,37.50
2018-12-06T02:43:20.781Z,38.30
2018-12-06T02:45:50.931Z,36.67
2018-12-06T02:48:21.036Z,38.27
2018-12-06T02:50:51.143Z,37.60
2018-12-06T02:53:22.396Z,37.60
2018-12-06T02:55:56.055Z,37.17
2018-12-06T02:58:35.927Z,35.30
2018-12-06T03:01:14.953Z,36.47
2018-12-06T03:03:46.411Z,36.97
2018-12-06T03:06:16.962Z,36.90
2018-12-06T03:08:47.272Z,37.80
2018-12-06T03:11:19.344Z,36.90
2018-12-06T03:13:49.865Z,36.70
2018-12-06T03:16:19.659Z,36.87
2018-12-06T03:18:49.603Z,34.23
2018-12-06T03:21:19.490Z,33.20
2018-12-06T03:23:49.528Z,32.63
2018-12-06T03:26:19.428Z,32.83
2018-12-06T03:28:49.850Z,35.73
2018-12-06T03:31:19.674Z,31.23
2018-12-06T03:33:49.467Z,32.93
2018-12-06T03:36:18.971Z,30.87
2018-12-06T03:38:48.594Z,32.10
2018-12-06T03:41:18.199Z,31.93
2018-12-06T03:43:48.046Z,33.57
2018-12-06T03:46:18.032Z,36.10
2018-12-06T03:48:47.847Z,36.13
2018-12-06T03:51:17.659Z,35.20
2018-12-06T03:53:47.173Z,34.33
2018-12-06T03:56:16.976Z,34.10
2018-12-06T03:58:50.554Z,31.70
2018-12-06T04:01:20.273Z,34.30
2018-12-06T04:03:49.984Z,34.97
2018-12-06T04:06:19.906Z,34.37
2018-12-06T04:08:49.706Z,34.03
2018-12-06T04:11:19.405Z,32.03
2018-12-06T04:13:49.425Z,31.83
2018-12-06T04:16:18.926Z,31.43
2018-12-06T04:18:48.534Z,30.63
2018-12-06T04:21:21.225Z,31.73
2018-12-06T04:23:50.947Z,31.30
2018-12-06T04:26:20.424Z,28.43
2018-12-06T04:28:50.058Z,28.30
2018-12-06T04:31:19.844Z,28.60
2018-12-06T04:33:49.778Z,30.43
2018-12-06T04:37:18.978Z,29.70
2018-12-06T04:39:48.599Z,28.57
2018-12-06T04:42:18.380Z,30.73
2018-12-06T04:44:49.023Z,31.20
2018-12-06T04:47:18.421Z,28.47
2018-12-06T04:49:48.432Z,30.93
2018-12-06T04:52:18.982Z,31.00
2018-12-06T04:54:48.467Z,29.97
2018-12-06T04:57:18.207Z,31.57
2018-12-06T04:59:47.993Z,31.10
2018-12-06T05:02:17.385Z,32.47
2018-12-06T05:04:47.000Z,34.93
2018-12-06T05:07:17.018Z,34.07
2018-12-06T05:09:46.417Z,30.93
2018-12-06T05:12:16.123Z,30.97
2018-12-06T05:14:45.959Z,30.50
2018-12-06T05:17:15.963Z,31.53
2018-12-06T05:19:45.776Z,30.50
2018-12-06T05:22:15.599Z,33.60
2018-12-06T05:24:45.491Z,32.87
2018-12-06T05:27:15.329Z,32.97
2018-12-06T05:29:44.701Z,31.83
2018-12-06T05:32:14.539Z,32.17
2018-12-06T05:34:44.430Z,30.70
2018-12-06T05:37:14.148Z,30.57
2018-12-06T05:39:44.046Z,29.77
2018-12-06T05:42:13.657Z,30.33
2018-12-06T05:44:43.472Z,28.97
2018-12-06T05:47:13.383Z,30.17
2018-12-06T05:49:42.989Z,29.57
2018-12-06T05:52:12.618Z,29.63
2018-12-06T05:54:45.791Z,26.60
2018-12-06T05:57:16.030Z,30.90
2018-12-06T05:59:46.867Z,29.23
2018-12-06T06:02:16.575Z,30.27
2018-12-06T06:04:46.382Z,27.80
2018-12-06T06:07:16.040Z,28.40
2018-12-06T06:09:46.030Z,30.00
2018-12-06T06:12:15.804Z,29.90
2018-12-06T06:14:45.711Z,28.63
2018-12-06T06:17:15.853Z,29.27
2018-12-06T06:19:45.865Z,27.70
2018-12-06T06:22:15.577Z,27.70
2018-12-06T06:24:45.177Z,29.70
2018-12-06T06:27:14.976Z,28.67
2018-12-06T06:29:44.600Z,28.80
2018-12-06T06:32:14.397Z,28.70
2018-12-06T06:34:44.001Z,29.33
2018-12-06T06:37:13.708Z,28.63
2018-12-06T06:39:43.422Z,29.17
2018-12-06T06:42:13.362Z,29.43
2018-12-06T06:44:43.030Z,31.30
2018-12-06T06:47:12.968Z,30.17
2018-12-06T06:49:43.205Z,30.83
2018-12-06T06:52:13.040Z,30.83
2018-12-06T06:54:43.025Z,32.83
2018-12-06T06:57:12.958Z,30.77
2018-12-06T06:59:42.425Z,32.87
2018-12-06T07:02:12.051Z,34.10
2018-12-06T07:04:42.150Z,33.47
2018-12-06T07:07:11.863Z,33.33
2018-12-06T07:09:41.998Z,32.90
2018-12-06T07:12:11.811Z,33.30
2018-12-06T07:14:41.828Z,33.63
2018-12-06T07:17:11.737Z,33.30
2018-12-06T07:19:41.884Z,34.03
2018-12-06T07:22:11.984Z,35.37
2018-12-06T07:24:41.775Z,35.87
2018-12-06T07:27:11.825Z,36.43
2018-12-06T07:29:41.745Z,38.17
2018-12-06T07:32:11.427Z,38.87
2018-12-06T07:34:41.058Z,36.93
2018-12-06T07:37:10.835Z,36.63
2018-12-06T07:39:40.846Z,35.00
2018-12-06T07:42:10.713Z,34.77
2018-12-06T07:44:40.585Z,36.57
2018-12-06T07:47:10.426Z,37.87
2018-12-06T07:49:40.633Z,36.57
2018-12-06T07:52:11.465Z,37.63
2018-12-06T07:54:41.466Z,36.50
2018-12-06T07:57:12.035Z,36.50
2018-12-06T07:59:42.515Z,38.03
2018-12-06T08:02:12.986Z,38.07
2018-12-06T08:04:43.366Z,38.57
2018-12-06T08:07:13.486Z,39.47
2018-12-06T08:09:43.945Z,39.97
2018-12-06T08:12:14.645Z,45.20
2018-12-06T08:14:44.874Z,44.93
2018-12-06T08:17:15.595Z,47.47
2018-12-06T08:19:45.956Z,46.33
2018-12-06T08:22:16.258Z,42.23
2018-12-06T08:24:46.669Z,41.60
2018-12-06T08:27:16.788Z,38.43
2018-12-06T08:29:46.805Z,38.03
2018-12-06T08:32:17.436Z,39.63
2018-12-06T08:34:47.977Z,38.87
2018-12-06T08:37:18.806Z,41.77
2018-12-06T08:39:49.957Z,38.90
2018-12-06T08:42:21.513Z,40.73
2018-12-06T08:44:53.526Z,41.63
2018-12-06T08:47:24.041Z,42.83
2018-12-06T08:49:53.920Z,44.13
2018-12-06T08:52:23.513Z,42.77
2018-12-06T08:54:53.648Z,45.23
2018-12-06T08:57:25.399Z,41.90
2018-12-06T08:59:55.835Z,41.70
2018-12-06T09:02:26.152Z,39.50
2018-12-06T09:04:56.043Z,39.53
2018-12-06T09:07:26.076Z,40.30
2018-12-06T09:09:56.809Z,37.90
2018-12-06T09:12:27.449Z,41.60
2018-12-06T09:14:58.388Z,41.37
2018-12-06T09:17:29.072Z,41.23
2018-12-06T09:19:59.348Z,41.43
2018-12-06T09:22:29.451Z,40.73
2018-12-06T09:25:01.006Z,39.37
2018-12-06T09:27:31.056Z,40.83
2018-12-06T09:30:01.435Z,37.67
2018-12-06T09:32:32.286Z,39.47
2018-12-06T09:35:02.305Z,39.77
2018-12-06T09:37:34.359Z,40.33
2018-12-06T09:40:05.018Z,37.90
2018-12-06T09:42:44.860Z,38.60
2018-12-06T09:45:23.472Z,38.87
2018-12-06T09:48:01.975Z,41.10
2018-12-06T09:50:31.997Z,38.03
2018-12-06T09:53:02.431Z,40.30
2018-12-06T09:55:32.429Z,39.23
2018-12-06T09:58:02.757Z,40.10
2018-12-06T10:00:32.870Z,42.00
2018-12-06T10:03:03.001Z,41.80
2018-12-06T10:05:32.918Z,44.83
2018-12-06T10:08:03.055Z,42.13
2018-12-06T10:10:33.973Z,42.67
2018-12-06T10:13:03.995Z,36.43
2018-12-06T10:15:34.958Z,33.20
2018-12-06T10:18:05.261Z,35.57
2018-12-06T10:20:35.056Z,34.77
2018-12-06T10:23:05.287Z,32.80
2018-12-06T10:25:35.488Z,34.47
2018-12-06T10:28:05.397Z,34.10
2018-12-06T10:30:35.655Z,35.53
2018-12-06T10:33:06.047Z,32.97
2018-12-06T10:35:36.385Z,32.37
2018-12-06T10:38:06.697Z,32.97
2018-12-06T10:40:36.942Z,36.13
2018-12-06T10:43:06.954Z,37.63
2018-12-06T10:45:37.167Z,43.77
2018-12-06T10:48:07.392Z,43.90
2018-12-06T10:50:37.401Z,48.37
2018-12-06T11:11:51.368Z,38.33
2018-12-06T11:14:21.472Z,34.30
2018-12-06T11:16:52.324Z,36.67
2018-12-06T11:19:22.451Z,36.87
2018-12-06T11:21:52.876Z,35.87
2018-12-06T11:24:22.891Z,32.37
2018-12-06T11:26:53.219Z,32.37
2018-12-06T11:29:23.499Z,32.73
2018-12-06T11:31:53.959Z,29.60
2018-12-06T11:34:24.272Z,36.00
2018-12-06T11:36:54.392Z,46.47
2018-12-06T11:39:24.958Z,53.03
2018-12-06T11:41:55.047Z,57.87
2018-12-06T11:44:25.033Z,45.07
2018-12-06T11:46:55.273Z,30.90
2018-12-06T12:08:10.673Z,16.47
2018-12-06T12:10:41.425Z,14.73
2018-12-06T12:13:12.769Z,13.73
2018-12-06T12:15:43.206Z,14.17
2018-12-06T12:18:14.325Z,14.67
2018-12-06T12:20:44.443Z,16.03
2018-12-06T12:23:15.185Z,16.83
2018-12-06T12:25:45.208Z,16.40
2018-12-06T12:28:15.225Z,14.07
2018-12-06T12:30:45.446Z,14.10
2018-12-06T12:33:15.663Z,14.67
2018-12-06T12:35:45.694Z,14.10
2018-12-06T12:38:16.004Z,16.00
2018-12-06T12:40:46.224Z,15.30
2018-12-06T12:43:16.435Z,14.93
2018-12-06T12:45:47.078Z,15.20
2018-12-06T12:48:17.817Z,15.33
2018-12-06T12:50:47.925Z,12.60
2018-12-06T12:53:18.355Z,12.93
2018-12-06T12:55:48.165Z,12.93
2018-12-06T12:58:18.912Z,12.90
2018-12-06T13:00:49.948Z,13.93
2018-12-06T13:03:20.170Z,17.13
2018-12-06T13:05:50.279Z,18.30
2018-12-06T13:08:20.493Z,16.77
2018-12-06T13:10:50.620Z,15.63
2018-12-06T13:13:21.041Z,13.37
2018-12-06T13:15:51.369Z,12.77
2018-12-06T13:18:22.480Z,15.47
2018-12-06T13:20:52.527Z,14.07
2018-12-06T13:23:23.163Z,15.03
2018-12-06T13:25:53.587Z,14.83
2018-12-06T13:28:24.235Z,13.63
2018-12-06T13:30:54.956Z,12.53
2018-12-06T13:33:25.388Z,11.33
2018-12-06T13:35:55.476Z,11.07
2018-12-06T13:38:26.026Z,11.43
2018-12-06T13:40:56.047Z,21.20
2018-12-06T13:43:25.947Z,11.90
2018-12-06T13:45:56.702Z,11.73
2018-12-06T13:48:26.995Z,11.20
2018-12-06T13:50:57.064Z,11.43
2018-12-06T13:53:27.447Z,10.57
2018-12-06T13:55:58.377Z,9.50
2018-12-06T13:58:29.216Z,11.47
2018-12-06T14:01:00.259Z,9.80
2018-12-06T14:03:30.809Z,10.53
2018-12-06T14:06:09.508Z,9.47
2018-12-06T14:08:42.066Z,9.60
2018-12-06T14:11:13.446Z,11.17
2018-12-06T14:13:46.541Z,10.77
2018-12-06T14:16:16.964Z,12.50
2018-12-06T14:18:47.500Z,17.67
2018-12-06T14:21:18.205Z,11.97
2018-12-06T14:23:49.245Z,12.40
2018-12-06T14:26:20.193Z,12.53
2018-12-06T14:28:50.502Z,13.77
2018-12-06T14:31:20.537Z,12.03
2018-12-06T14:33:51.377Z,13.80
2018-12-06T14:36:22.339Z,15.33
2018-12-06T14:38:53.258Z,14.23
2018-12-06T14:41:23.352Z,15.13
2018-12-06T14:43:54.404Z,22.40
2018-12-06T14:46:25.436Z,24.13
2018-12-06T14:48:55.959Z,19.20
2018-12-06T14:51:25.769Z,20.10
2018-12-06T14:53:55.896Z,14.80
2018-12-06T14:56:25.816Z,13.77
2018-12-06T14:58:56.254Z,16.10
2018-12-06T15:01:26.872Z,14.70
2018-12-06T15:03:56.879Z,13.97
2018-12-06T15:06:26.697Z,13.03
2018-12-06T15:08:56.815Z,12.37
2018-12-06T15:11:26.822Z,10.43
2018-12-06T15:13:58.283Z,10.53
2018-12-06T15:16:28.186Z,13.03
2018-12-06T15:18:59.025Z,14.47
2018-12-06T15:40:12.173Z,13.37
2018-12-06T16:01:27.472Z,18.40
2018-12-06T16:03:58.620Z,15.77
2018-12-06T16:06:30.978Z,13.77
2018-12-06T16:09:02.019Z,13.23
2018-12-06T16:11:31.933Z,14.63
2018-12-06T16:14:02.151Z,14.80
2018-12-06T16:16:33.085Z,14.87
2018-12-06T16:19:03.930Z,14.50
2018-12-06T16:21:37.423Z,14.30
2018-12-06T16:24:07.133Z,14.27
2018-12-06T16:26:37.869Z,13.97
2018-12-06T16:29:07.880Z,14.03
2018-12-06T16:31:37.896Z,13.30
2018-12-06T16:34:07.511Z,14.50
2018-12-06T16:36:37.840Z,13.77
2018-12-06T16:39:08.569Z,14.27
2018-12-06T16:41:38.372Z,13.03
2018-12-06T16:44:08.394Z,13.47
2018-12-06T16:46:38.412Z,12.50
2018-12-06T16:49:10.330Z,12.93
2018-12-06T16:51:40.382Z,13.30
2018-12-06T16:54:10.402Z,14.00
2018-12-06T16:56:40.743Z,16.93
2018-12-06T16:59:10.543Z,14.43
2018-12-06T17:01:40.354Z,13.83
2018-12-06T17:04:10.268Z,12.77
2018-12-06T17:06:40.484Z,13.70
2018-12-06T17:09:10.200Z,13.50
2018-12-06T17:11:40.011Z,13.47
2018-12-06T17:14:09.513Z,13.27
2018-12-06T17:16:39.221Z,13.93
2018-12-06T17:19:09.541Z,14.43
2018-12-06T17:21:39.254Z,15.40
2018-12-06T17:24:09.433Z,15.13
2018-12-06T17:26:39.394Z,14.37
2018-12-06T17:29:12.167Z,15.73
2018-12-06T17:31:43.619Z,13.00
2018-12-06T17:34:17.031Z,12.53
2018-12-06T17:36:47.949Z,13.33
2018-12-06T17:39:17.760Z,13.50
2018-12-06T17:41:47.783Z,12.37
2018-12-06T17:44:18.000Z,19.03
2018-12-06T17:46:47.922Z,31.97
2018-12-06T17:49:17.933Z,29.53
2018-12-06T17:51:47.433Z,23.43
2018-12-06T17:54:17.034Z,23.67
2018-12-06T17:56:47.362Z,23.70
2018-12-06T17:59:17.491Z,20.97
2018-12-06T18:01:48.011Z,19.57
2018-12-06T18:04:21.004Z,17.33
2018-12-06T18:06:54.193Z,18.37
2018-12-06T18:09:23.798Z,20.83
2018-12-06T18:11:53.503Z,19.07
2018-12-06T18:14:23.423Z,19.97
2018-12-06T18:16:53.947Z,18.90
2018-12-06T18:19:24.171Z,19.40
2018-12-06T18:21:54.491Z,20.57
2018-12-06T18:24:24.316Z,22.07
2018-12-06T18:26:54.223Z,21.47
2018-12-06T18:29:25.162Z,20.07
2018-12-06T18:31:55.599Z,19.47
2018-12-06T18:34:25.909Z,20.40
2018-12-06T18:36:55.936Z,21.83
2018-12-06T18:39:25.874Z,22.33
2018-12-06T18:41:55.882Z,22.77
2018-12-06T18:44:26.205Z,22.70
2018-12-06T18:46:57.041Z,21.37
2018-12-06T18:49:27.055Z,21.23
2018-12-06T18:51:57.051Z,22.43
2018-12-06T18:54:27.006Z,20.90
2018-12-06T18:56:57.502Z,21.13
2018-12-06T18:59:28.270Z,19.43
2018-12-06T19:01:58.139Z,19.57
2018-12-06T19:04:28.096Z,20.47
2018-12-06T19:06:57.996Z,19.27
2018-12-06T19:09:28.196Z,20.07
2018-12-06T19:11:58.675Z,21.83
2018-12-06T19:14:30.009Z,20.67
2018-12-06T19:17:00.443Z,19.07
2018-12-06T19:19:32.357Z,18.03
2018-12-06T19:22:02.805Z,18.97
2018-12-06T19:24:39.169Z,19.23
2018-12-06T19:27:09.391Z,20.60
2018-12-06T19:29:42.354Z,22.57
2018-12-06T19:32:14.005Z,22.70
2018-12-06T19:34:44.636Z,22.93
2018-12-06T19:37:14.545Z,21.80
2018-12-06T19:39:46.725Z,22.10
2018-12-06T19:42:17.598Z,22.17
2018-12-06T19:44:47.381Z,19.97
2018-12-06T19:47:18.437Z,24.33
2018-12-06T19:49:48.038Z,23.77
2018-12-06T19:52:18.558Z,22.27
2018-12-06T19:54:48.884Z,21.73
2018-12-06T19:57:21.854Z,21.10
2018-12-06T19:59:52.285Z,21.03
2018-12-06T20:02:22.189Z,22.00
2018-12-06T20:04:55.298Z,22.47
2018-12-06T20:07:25.083Z,22.97
2018-12-06T20:09:55.456Z,23.37
2018-12-06T20:12:25.866Z,22.90
2018-12-06T20:14:56.282Z,20.93
2018-12-06T20:36:10.245Z,23.47
2018-12-06T20:38:41.277Z,24.90
2018-12-06T20:41:11.187Z,24.07
2018-12-06T20:43:42.237Z,25.83
2018-12-06T20:46:12.447Z,25.43
2018-12-06T20:48:42.466Z,25.93
2018-12-06T20:51:12.496Z,25.43
2018-12-06T20:53:45.151Z,25.27
2018-12-06T20:56:14.998Z,25.43
2018-12-06T20:58:44.986Z,28.37
2018-12-06T21:01:17.061Z,29.10
2018-12-06T21:03:47.056Z,30.10
2018-12-06T21:06:16.664Z,29.77
2018-12-06T21:08:46.898Z,30.37
2018-12-06T21:11:16.618Z,31.33
2018-12-06T21:13:46.527Z,29.50
2018-12-06T21:16:16.532Z,30.40
2018-12-06T21:18:46.465Z,29.33
2018-12-06T21:21:15.949Z,28.77
2018-12-06T21:23:45.768Z,29.17
2018-12-06T21:26:15.373Z,31.03
2018-12-06T21:28:45.487Z,30.20
2018-12-06T21:31:15.926Z,28.80
2018-12-06T21:33:45.519Z,32.07
2018-12-06T21:36:15.428Z,30.70
2018-12-06T21:38:45.366Z,30.30
2018-12-06T21:41:16.382Z,32.43
2018-12-06T21:43:46.031Z,29.77
2018-12-06T21:46:15.935Z,32.17
2018-12-06T21:48:45.513Z,28.00
2018-12-06T21:51:15.031Z,31.67
2018-12-06T21:53:44.540Z,33.20
2018-12-06T21:56:14.240Z,29.13
2018-12-06T21:58:44.067Z,36.37
2018-12-06T22:01:14.060Z,31.30
2018-12-06T22:03:44.294Z,37.60
2018-12-06T22:06:14.289Z,30.83
2018-12-06T22:08:44.035Z,30.30
2018-12-06T22:11:13.944Z,31.17
2018-12-06T22:13:43.948Z,34.70
2018-12-06T22:16:14.584Z,32.23
2018-12-06T22:18:45.070Z,29.90
2018-12-06T22:21:16.055Z,30.57
2018-12-06T22:23:46.268Z,32.47
2018-12-06T22:26:16.379Z,31.77
2018-12-06T22:28:47.848Z,32.07
2018-12-06T22:31:18.876Z,31.23
2018-12-06T22:33:49.417Z,30.73
2018-12-06T22:36:20.441Z,29.27
2018-12-06T22:38:50.984Z,28.03
2018-12-06T22:41:20.805Z,30.33
2018-12-06T22:43:51.376Z,27.23
2018-12-06T22:46:21.845Z,26.57
2018-12-06T22:48:51.976Z,27.37
2018-12-06T22:51:24.444Z,28.63
2018-12-06T22:53:53.846Z,29.30
2018-12-06T22:56:23.431Z,30.27
2018-12-06T22:58:53.468Z,27.33
2018-12-06T23:01:27.035Z,26.50
2018-12-06T23:03:57.045Z,27.13
2018-12-06T23:06:26.983Z,30.77
2018-12-06T23:08:56.378Z,27.00
2018-12-06T23:11:26.408Z,26.30
2018-12-06T23:13:56.032Z,29.37
2018-12-06T23:16:25.743Z,25.20
2018-12-06T23:18:55.523Z,25.73
2018-12-06T23:21:25.436Z,26.73
2018-12-06T23:23:55.054Z,27.00
2018-12-06T23:26:24.868Z,25.57
2018-12-06T23:28:54.667Z,26.33
2018-12-06T23:31:24.483Z,25.63
2018-12-06T23:33:54.508Z,23.30
2018-12-06T23:36:24.203Z,23.80
2018-12-06T23:38:54.124Z,23.70
2018-12-06T23:41:23.933Z,23.37
2018-12-06T23:43:54.279Z,24.23
2018-12-06T23:46:23.963Z,24.90
2018-12-06T23:48:53.490Z,23.57
2018-12-06T23:51:27.375Z,24.80
2018-12-06T23:53:56.983Z,23.03
2018-12-06T23:56:26.911Z,20.73
2018-12-06T23:58:56.507Z,21.33
